X  Close Metar Aviation Weather Data     LYNI Nis Airport
Temperature
32°F Temperature
28°F Dewpoint
87% Humidity



Wind
1 MPH
2 KM/H
0 M/S
1 KTS



Calm
N
Current Conditions

Mostly Scattered Clouds Mostly Scattered Clouds
Pressure 1015.92 (hPa) - 30 (inHg)
Visibility 5 (mile) - 8 (km)
Airport
Airport-code LYNI

Location: Nis Airport
Distance: 63 (mi)

Metar:
LYNI 310400Z VRB01KT 8000 SCT017 BKN030 M00/M02 Q1016 NOSIG

Time: 31-01-2023 05:00 CET